»·PEaware :: N2102W KSMX-KSBP

N2102W :: KSMX-KSBP

FLIGHT INFORMATION

Flight Status: Arrived
Operator: Privately registered:
United States
More flights under this callsign
Pilot: Eric G. (5941)
Aircraft: EMBRAER PHENOM 300
(E55P)
More flights by this aircraft type
Origin: KSMX Santa Maria Pub/Capt Hancock
United States
Destination: KSBP San Luis Co Regl
United States
More flights between these airports :: More routes between these airports
Route: VFR
File this flight plan on PilotEdge
Remarks:
Altitude:
(Current/Filed)
4,500ft
Speed:
(Current/Filed)
200kts
Departed: 13-Sep-18 07:42 PM
Arrived: 13-Sep-18 07:55 PM
Distance/Time
Traveled:
23nm/0:13
Distance/Time
To Go:
Arrived

Flight Plot

Page will automatically refresh every two minutes.


Map Options




Map Legend


Flown Route
Filed Route
Departure Airport
Arrival Airport
Navaid (VOR, NDB)
Fix

Horizontal Profiles

Position Reports

Time Latitude Longitude Heading Altitude Ground
Speed
13-Sep-18 19:04 34.896323 -120.445303 315 264ft 0kts
13-Sep-18 19:05 34.896323 -120.445303 315 264ft 0kts
13-Sep-18 19:06 34.896323 -120.445303 315 264ft 0kts
13-Sep-18 19:07 34.896323 -120.445303 315 264ft 0kts
13-Sep-18 19:08 34.896323 -120.445303 315 264ft 0kts
13-Sep-18 19:09 34.896323 -120.445303 315 264ft 0kts
13-Sep-18 19:10 34.896323 -120.445303 315 264ft 0kts
13-Sep-18 19:11 34.896323 -120.445303 315 264ft 0kts
13-Sep-18 19:12 34.896323 -120.445303 315 264ft 0kts
13-Sep-18 19:13 34.896323 -120.445303 315 264ft 0kts
13-Sep-18 19:14 34.896323 -120.445303 315 264ft 0kts
13-Sep-18 19:15 34.896323 -120.445303 315 264ft 0kts
13-Sep-18 19:16 34.896323 -120.445303 315 264ft 0kts
13-Sep-18 19:17 34.896323 -120.445303 315 264ft 0kts
13-Sep-18 19:18 34.896323 -120.445303 315 264ft 0kts
13-Sep-18 19:19 34.896323 -120.445303 315 264ft 0kts
13-Sep-18 19:20 34.896323 -120.445303 315 264ft 0kts
13-Sep-18 19:21 34.896323 -120.445303 315 264ft 0kts
13-Sep-18 19:22 34.896323 -120.445303 315 264ft 0kts
13-Sep-18 19:23 34.896323 -120.445303 315 264ft 0kts
13-Sep-18 19:24 34.896323 -120.445303 315 264ft 0kts
13-Sep-18 19:25 34.896323 -120.445303 315 264ft 0kts
13-Sep-18 19:26 34.896323 -120.445303 315 264ft 0kts
13-Sep-18 19:27 34.896323 -120.445303 315 264ft 0kts
13-Sep-18 19:28 34.896323 -120.445303 315 264ft 0kts
13-Sep-18 19:29 34.896323 -120.445303 315 264ft 0kts
13-Sep-18 19:30 34.896323 -120.445303 315 264ft 0kts
13-Sep-18 19:31 34.896323 -120.445303 315 264ft 0kts
13-Sep-18 19:32 34.896323 -120.445303 315 264ft 0kts
13-Sep-18 19:33 34.896323 -120.445303 315 264ft 0kts
13-Sep-18 19:34 34.896323 -120.445303 315 264ft 0kts
13-Sep-18 19:35 34.896323 -120.445303 315 264ft 0kts
13-Sep-18 19:36 34.896323 -120.445303 315 264ft 0kts
13-Sep-18 19:37 34.896323 -120.445303 315 264ft 0kts
13-Sep-18 19:38 34.896291 -120.445521 225 264ft 0kts
13-Sep-18 19:39 34.896290 -120.445523 225 264ft 0kts
13-Sep-18 19:40 34.895439 -120.445276 134 264ft 10kts
13-Sep-18 19:41 34.893492 -120.445269 182 264ft 4kts
13-Sep-18 19:42 34.893465 -120.445271 182 264ft 0kts
13-Sep-18 19:43 34.893463 -120.445271 182 264ft 0kts
13-Sep-18 19:44 34.894263 -120.447635 316 264ft 72kts
13-Sep-18 19:45 34.924311 -120.484777 313 3084ft 204kts
13-Sep-18 19:46 34.967991 -120.540873 301 4354ft 239kts
13-Sep-18 19:47 34.996022 -120.604873 298 4257ft 222kts
13-Sep-18 19:48 35.037323 -120.650867 329 4276ft 212kts
13-Sep-18 19:49 35.089829 -120.685197 333 4442ft 220kts
13-Sep-18 19:50 35.129891 -120.719066 315 4040ft 207kts
13-Sep-18 19:51 35.187066 -120.750563 15 3419ft 204kts
13-Sep-18 19:52 35.228809 -120.719763 58 2828ft 227kts
13-Sep-18 19:53 35.208442 -120.660193 140 2437ft 185kts
13-Sep-18 19:54 35.176938 -120.611059 74 2091ft 163kts
13-Sep-18 19:55 35.200802 -120.583816 341 1642ft 140kts
13-Sep-18 19:56 35.225117 -120.619426 305 617ft 130kts
13-Sep-18 19:57 35.239906 -120.645584 304 215ft 21kts
13-Sep-18 19:58 35.241518 -120.646593 103 215ft 8kts
13-Sep-18 19:59 35.241359 -120.645759 53 215ft 0kts

Navigation Log

Ident Type
1. KSMX Airport
2. KSBP Airport